Time;durP1;ratioP1;P1;durP2;ratioP2;P2;SDS_P1;SDS_P2;PMS_P1;PMS_P2;Temp;Humidity;BMP_temperature;BMP_pressure;BME280_temperature;BME280_humidity;BME280_pressure;Samples;Min_cycle;Max_cycle;Signal;HPM_P1;HPM_P2
2022/09/22 00:01:51;;;;;;;6.10;5.60;;;;;;;9.65;62.36;95130.59;4984096;28;20207;-69
2022/09/22 00:04:17;;;;;;;5.72;5.30;;;;;;;9.66;62.59;95126.16;4986407;28;20676;-69
2022/09/22 00:06:46;;;;;;;6.88;5.50;;;;;;;9.61;62.26;95123.97;4986567;28;20218;-70
2022/09/22 00:09:14;;;;;;;5.38;4.97;;;;;;;9.46;63.28;95128.00;4985538;28;20273;-70
2022/09/22 00:11:43;;;;;;;5.43;5.00;;;;;;;9.52;62.93;95131.88;4988829;28;20211;-68
2022/09/22 00:14:10;;;;;;;5.45;5.05;;;;;;;9.59;62.47;95120.66;4988329;28;20286;-69
2022/09/22 00:16:43;;;;;;;5.80;5.35;;;;;;;9.39;63.08;95119.06;4985923;28;20203;-69
2022/09/22 00:19:20;;;;;;;5.10;4.70;;;;;;;9.51;62.38;95117.91;4988394;28;20215;-70
2022/09/22 00:21:47;;;;;;;4.65;4.32;;;;;;;9.36;62.72;95125.44;4987507;28;20823;-70
2022/09/22 00:24:12;;;;;;;4.90;4.50;;;;;;;9.30;63.33;95120.72;4988582;28;20889;-70
2022/09/22 00:26:38;;;;;;;5.22;4.82;;;;;;;9.27;63.22;95127.09;4988509;28;20218;-70
2022/09/22 00:29:08;;;;;;;4.60;4.20;;;;;;;9.33;63.07;95127.47;4988280;28;20208;-70
2022/09/22 00:31:36;;;;;;;5.47;5.07;;;;;;;9.38;62.98;95127.88;4986405;28;20210;-69
2022/09/22 00:34:02;;;;;;;4.93;4.53;;;;;;;9.27;62.89;95121.00;4987276;28;20342;-70
2022/09/22 00:36:28;;;;;;;4.72;4.43;;;;;;;9.38;62.67;95126.13;4985402;28;20295;-70
2022/09/22 00:38:55;;;;;;;4.85;4.53;;;;;;;9.45;62.46;95123.75;4985683;28;20683;-68
2022/09/22 00:41:24;;;;;;;4.35;4.05;;;;;;;9.28;62.58;95113.00;4986458;28;20305;-71
2022/09/22 00:44:27;;;;;;;4.78;4.43;;;;;;;9.33;62.71;95124.84;4990889;28;20199;-69
2022/09/22 00:47:01;;;;;;;4.53;4.22;;;;;;;9.37;62.54;95126.25;4989768;28;20265;-70
2022/09/22 00:49:32;;;;;;;4.30;4.00;;;;;;;9.42;62.52;95130.09;4989199;28;20298;-70
2022/09/22 00:51:59;;;;;;;4.47;4.10;;;;;;;9.42;62.52;95124.84;4989703;28;20263;-69
2022/09/22 00:54:25;;;;;;;4.88;4.40;;;;;;;9.35;62.58;95122.94;4986369;28;20199;-70
2022/09/22 00:57:15;;;;;;;4.63;4.32;;;;;;;9.44;62.52;95127.34;4987827;28;20246;-70
2022/09/22 00:59:43;;;;;;;4.85;4.55;;;;;;;9.42;62.30;95116.16;4984204;28;20627;-70
2022/09/22 01:02:09;;;;;;;4.75;4.38;;;;;;;9.46;62.66;95120.97;4990964;28;20211;-69
2022/09/22 01:04:35;;;;;;;5.25;4.85;;;;;;;9.46;62.53;95114.88;4990018;28;20226;-69
2022/09/22 01:07:02;;;;;;;4.43;4.13;;;;;;;9.37;62.71;95113.13;4986706;28;20203;-69
2022/09/22 01:09:31;;;;;;;4.57;4.18;;;;;;;9.37;62.74;95111.31;4983749;28;20226;-68
2022/09/22 01:11:58;;;;;;;4.13;3.83;;;;;;;9.41;62.59;95109.22;4984527;28;20585;-69
2022/09/22 01:14:30;;;;;;;4.75;4.35;;;;;;;9.30;62.72;95104.16;4983043;28;20240;-69
2022/09/22 01:17:20;;;;;;;4.93;4.20;;;;;;;9.30;62.84;95112.03;4989772;28;20592;-69
2022/09/22 01:20:04;;;;;;;4.68;4.25;;;;;;;9.27;63.07;95113.13;4987479;28;20254;-69
2022/09/22 01:23:14;;;;;;;4.50;4.20;;;;;;;9.25;62.89;95112.47;4984475;28;20208;-69
2022/09/22 01:25:45;;;;;;;4.60;4.30;;;;;;;9.22;63.24;95112.72;4990829;28;20231;-68
2022/09/22 01:28:53;;;;;;;5.30;4.80;;;;;;;9.13;63.63;95111.78;4984517;28;20291;-71
2022/09/22 01:31:39;;;;;;;4.65;4.35;;;;;;;9.12;63.67;95115.38;4983975;28;20626;-69
2022/09/22 01:34:08;;;;;;;4.85;4.47;;;;;;;9.08;63.91;95108.75;4988573;28;20200;-69
2022/09/22 01:36:50;;;;;;;5.45;4.43;;;;;;;9.08;63.86;95108.75;4989367;28;20310;-69
2022/09/22 01:39:50;;;;;;;5.15;4.80;;;;;;;9.03;64.22;95114.44;4989510;28;20216;-69
2022/09/22 01:42:27;;;;;;;5.78;5.25;;;;;;;9.11;64.01;95105.84;4951561;28;20216;-69
2022/09/22 01:44:59;;;;;;;5.63;5.07;;;;;;;9.18;63.54;95109.56;4951855;28;20500;-69
2022/09/22 01:47:35;;;;;;;5.82;5.30;;;;;;;9.08;64.05;95106.13;4967895;28;20774;-69
2022/09/22 01:50:07;;;;;;;5.60;5.20;;;;;;;9.02;64.32;95099.66;4966369;28;20243;-70
2022/09/22 01:52:35;;;;;;;5.63;5.18;;;;;;;9.00;64.59;95100.75;4969183;28;20684;-70
2022/09/22 01:55:12;;;;;;;5.82;5.32;;;;;;;9.06;64.26;95094.94;4955998;28;20208;-70
2022/09/22 01:57:52;;;;;;;5.10;4.80;;;;;;;9.02;63.91;95106.69;4953411;28;20215;-70
2022/09/22 02:00:18;;;;;;;6.00;5.60;;;;;;;8.96;64.61;95099.41;4969763;28;20323;-70
2022/09/22 02:03:16;;;;;;;5.25;4.85;;;;;;;8.88;64.90;95105.34;4953327;28;20303;-70
2022/09/22 02:05:48;;;;;;;5.93;5.32;;;;;;;8.87;64.75;95108.09;4950654;28;20773;-70
2022/09/22 02:08:40;;;;;;;5.50;5.10;;;;;;;8.82;64.85;95106.72;4954303;28;20208;-71
2022/09/22 02:11:10;;;;;;;5.50;5.10;;;;;;;8.90;65.02;95113.03;4969011;28;20216;-70
2022/09/22 02:13:36;;;;;;;5.07;4.70;;;;;;;8.95;64.50;95100.34;4950118;28;20219;-70
2022/09/22 02:16:04;;;;;;;5.75;5.35;;;;;;;8.79;65.29;95104.38;4966557;28;20220;-69
2022/09/22 02:18:38;;;;;;;5.60;5.20;;;;;;;8.84;65.08;95098.69;4974695;28;20220;-69
2022/09/22 02:21:03;;;;;;;5.40;5.00;;;;;;;8.80;65.20;95100.78;4980671;28;20296;-69
2022/09/22 02:23:31;;;;;;;5.55;5.15;;;;;;;8.86;65.02;95091.53;4984110;28;20453;-69
2022/09/22 02:25:58;;;;;;;5.83;5.43;;;;;;;8.82;65.39;95098.84;4988230;28;20215;-70
2022/09/22 02:28:24;;;;;;;5.60;5.20;;;;;;;8.75;65.42;95095.13;4989092;28;20211;-69
2022/09/22 02:30:53;;;;;;;5.83;5.33;;;;;;;8.75;65.71;95091.69;4991453;28;20239;-69
2022/09/22 02:33:21;;;;;;;6.07;5.57;;;;;;;8.83;65.29;95097.88;4992345;28;20215;-69
2022/09/22 02:35:54;;;;;;;6.10;5.60;;;;;;;8.80;65.36;95098.16;4994135;28;20298;-70
2022/09/22 02:38:28;;;;;;;6.43;5.80;;;;;;;8.80;65.54;95098.16;4986768;28;20219;-69
2022/09/22 02:41:35;;;;;;;6.17;5.77;;;;;;;8.71;65.81;95103.41;4981654;28;20306;-69
2022/09/22 02:44:12;;;;;;;6.90;6.30;;;;;;;8.80;65.84;95105.19;4954495;28;20306;-69
2022/09/22 02:46:47;;;;;;;6.40;5.90;;;;;;;8.83;65.76;95105.75;4962877;28;20226;-69
2022/09/22 02:49:17;;;;;;;6.68;6.18;;;;;;;8.82;65.86;95106.72;4955321;28;20355;-69
2022/09/22 02:51:45;;;;;;;6.45;6.00;;;;;;;8.88;65.62;95110.59;4958289;28;20290;-69
2022/09/22 02:54:13;;;;;;;6.18;5.68;;;;;;;8.91;65.70;95117.34;4970084;28;20575;-69
2022/09/22 02:56:40;;;;;;;6.45;5.95;;;;;;;9.02;64.97;95112.75;4956317;28;20231;-70
2022/09/22 02:59:05;;;;;;;6.10;5.63;;;;;;;9.02;65.41;95119.81;4956145;28;20263;-69
2022/09/22 03:01:30;;;;;;;6.20;5.70;;;;;;;9.12;65.28;95114.56;4952783;28;20220;-70
2022/09/22 03:03:58;;;;;;;6.40;5.90;;;;;;;9.07;65.38;95114.97;4956283;28;20318;-69
2022/09/22 03:06:23;;;;;;;6.60;6.13;;;;;;;9.06;65.46;95113.31;4982548;28;20219;-69
2022/09/22 03:08:49;;;;;;;6.33;5.93;;;;;;;9.11;65.33;95112.88;4972103;28;20281;-69
2022/09/22 03:11:14;;;;;;;6.13;5.70;;;;;;;9.20;65.10;95115.50;4971465;28;20256;-69
2022/09/22 03:13:39;;;;;;;7.40;6.80;;;;;;;9.14;65.25;95117.84;4969733;28;20303;-69
2022/09/22 03:16:05;;;;;;;7.00;6.50;;;;;;;9.18;65.44;95119.25;4989166;28;20205;-70
2022/09/22 03:18:30;;;;;;;7.00;6.50;;;;;;;9.30;64.74;95112.84;4990384;28;20207;-69
2022/09/22 03:20:56;;;;;;;7.45;6.85;;;;;;;9.34;64.87;95121.28;4985664;28;20801;-68
2022/09/22 03:23:21;;;;;;;7.50;6.90;;;;;;;9.21;64.93;95109.28;4989145;28;20211;-70
2022/09/22 03:25:47;;;;;;;8.00;7.30;;;;;;;9.14;65.28;95118.72;4987703;28;20633;-70
2022/09/22 03:28:12;;;;;;;7.10;6.50;;;;;;;9.07;65.72;95117.59;4983682;28;20200;-70
2022/09/22 03:30:39;;;;;;;7.07;6.57;;;;;;;9.12;65.46;95119.81;4987858;28;20211;-70
2022/09/22 03:33:04;;;;;;;7.30;6.68;;;;;;;9.00;65.73;95113.88;4988166;28;20219;-70
2022/09/22 03:35:30;;;;;;;6.93;6.43;;;;;;;9.07;65.57;95109.72;4986827;28;20290;-70
2022/09/22 03:37:55;;;;;;;7.35;6.75;;;;;;;9.05;65.50;95111.66;4988437;28;20246;-70
2022/09/22 03:40:21;;;;;;;7.38;6.88;;;;;;;8.95;66.02;95110.84;4987060;28;20218;-69
2022/09/22 03:42:47;;;;;;;6.67;6.20;;;;;;;8.93;66.01;95112.78;4989115;28;20298;-69
2022/09/22 03:45:13;;;;;;;6.75;6.25;;;;;;;8.92;66.09;95104.06;4989450;28;20859;-69
2022/09/22 03:47:39;;;;;;;7.18;6.50;;;;;;;9.00;65.75;95113.88;4986372;28;20230;-69
2022/09/22 03:50:05;;;;;;;6.38;5.95;;;;;;;9.03;65.42;95110.97;4980905;28;20212;-69
2022/09/22 03:52:32;;;;;;;6.43;5.93;;;;;;;9.13;65.17;95116.22;4983046;28;20234;-70
2022/09/22 03:54:58;;;;;;;6.97;6.47;;;;;;;9.07;65.30;95114.16;4989325;28;20262;-71
2022/09/22 03:57:23;;;;;;;6.23;5.83;;;;;;;9.08;65.16;95119.25;4987499;28;20326;-71
2022/09/22 03:59:49;;;;;;;6.33;5.90;;;;;;;9.08;64.94;95121.03;4989065;28;20717;-71
2022/09/22 04:02:14;;;;;;;6.97;6.47;;;;;;;9.10;65.12;95127.81;4987810;28;20204;-70
2022/09/22 04:04:40;;;;;;;7.70;7.10;;;;;;;9.02;65.52;95123.25;4983942;28;20235;-70
2022/09/22 04:07:06;;;;;;;7.53;6.93;;;;;;;9.05;65.48;95116.91;4986376;28;20229;-70
2022/09/22 04:09:31;;;;;;;7.60;7.00;;;;;;;8.97;65.69;95109.72;4991074;28;20208;-71
2022/09/22 04:11:57;;;;;;;7.22;6.57;;;;;;;9.11;65.45;95132.06;4980766;28;20215;-73
2022/09/22 04:14:22;;;;;;;7.30;6.70;;;;;;;9.18;65.06;95130.56;4986496;28;20264;-70
2022/09/22 04:16:48;;;;;;;7.50;7.00;;;;;;;9.15;65.02;95119.53;4992623;28;20207;-71
2022/09/22 04:19:14;;;;;;;7.23;6.63;;;;;;;9.12;65.39;95131.13;4985956;28;20298;-70
2022/09/22 04:21:40;;;;;;;6.85;6.35;;;;;;;9.24;64.68;95132.63;4991770;28;20313;-70
2022/09/22 04:24:07;;;;;;;6.78;6.28;;;;;;;9.27;64.34;95121.00;4985385;28;20680;-70
2022/09/22 04:26:32;;;;;;;6.67;6.17;;;;;;;9.21;64.69;95126.81;4992124;28;20693;-70
2022/09/22 04:28:58;;;;;;;6.87;6.37;;;;;;;9.15;64.84;95127.41;4987834;28;20210;-70
2022/09/22 04:31:23;;;;;;;7.22;6.72;;;;;;;9.23;64.33;95128.34;4992295;28;20207;-68
2022/09/22 04:33:48;;;;;;;7.10;6.60;;;;;;;9.12;64.66;95131.13;4988891;28;20211;-70
2022/09/22 04:36:14;;;;;;;6.95;6.45;;;;;;;9.15;64.95;95136.09;4992188;28;20311;-69
2022/09/22 04:38:39;;;;;;;7.25;6.57;;;;;;;9.06;65.17;95131.66;4991930;28;20222;-69
2022/09/22 04:41:05;;;;;;;7.25;6.75;;;;;;;9.21;64.74;95126.81;4990274;28;20683;-69
2022/09/22 04:43:30;;;;;;;6.78;6.28;;;;;;;9.19;64.80;95140.06;4991859;28;20207;-70
2022/09/22 04:45:55;;;;;;;7.25;6.55;;;;;;;9.24;64.64;95132.63;4991161;28;21147;-70
2022/09/22 04:48:21;;;;;;;7.23;6.63;;;;;;;9.23;64.45;95127.53;4990632;28;20298;-70
2022/09/22 04:50:46;;;;;;;6.90;6.40;;;;;;;9.26;64.41;95133.31;4988596;28;20211;-70
2022/09/22 04:53:12;;;;;;;7.10;6.50;;;;;;;9.35;64.22;95123.75;4988386;28;20558;-71
2022/09/22 04:55:37;;;;;;;7.10;6.50;;;;;;;9.29;64.48;95134.81;4982866;28;20693;-71
2022/09/22 04:58:03;;;;;;;7.40;6.80;;;;;;;9.39;64.37;95140.06;4991416;28;20269;-70
2022/09/22 05:00:29;;;;;;;7.35;6.75;;;;;;;9.26;64.80;95143.81;4985612;28;20519;-70
2022/09/22 05:02:55;;;;;;;7.00;6.40;;;;;;;9.36;64.29;95129.84;4988584;28;20210;-71
2022/09/22 05:05:23;;;;;;;7.27;6.77;;;;;;;9.45;63.97;95127.19;4989427;28;20212;-70
2022/09/22 05:07:52;;;;;;;6.83;6.33;;;;;;;9.53;63.48;95131.72;4991089;28;20207;-70
2022/09/22 05:10:19;;;;;;;6.77;6.27;;;;;;;9.49;63.92;95127.75;4990353;28;20207;-70
2022/09/22 05:12:45;;;;;;;7.40;6.72;;;;;;;9.55;63.34;95134.22;4987943;28;20223;-70
2022/09/22 05:15:13;;;;;;;7.00;6.50;;;;;;;9.57;63.51;95129.63;4986163;28;20219;-69
2022/09/22 05:17:50;;;;;;;7.40;6.80;;;;;;;9.60;63.81;95138.06;4999177;28;20219;-69
2022/09/22 05:20:16;;;;;;;7.63;7.03;;;;;;;9.60;63.59;95132.00;4989670;28;20573;-69
2022/09/22 05:22:46;;;;;;;7.22;6.63;;;;;;;9.63;63.31;95137.78;4988342;28;20211;-69
2022/09/22 05:25:13;;;;;;;7.32;6.82;;;;;;;9.76;62.83;95136.66;4992316;28;20231;-70
2022/09/22 05:27:49;;;;;;;7.57;7.00;;;;;;;9.70;63.04;95138.88;4991198;28;20211;-69
2022/09/22 05:30:15;;;;;;;7.50;6.80;;;;;;;9.68;63.01;95138.19;4988088;28;20208;-70
2022/09/22 05:32:43;;;;;;;7.50;6.80;;;;;;;9.79;63.04;95136.34;4989234;28;20207;-70
2022/09/22 05:35:13;;;;;;;7.70;6.97;;;;;;;9.75;63.23;95142.84;4989916;28;20535;-70
2022/09/22 05:37:41;;;;;;;7.53;6.93;;;;;;;9.87;62.73;95132.03;4990668;28;20220;-72
2022/09/22 05:40:07;;;;;;;7.27;6.67;;;;;;;10.00;62.32;95139.59;4988729;28;20663;-72
2022/09/22 05:42:37;;;;;;;7.72;7.13;;;;;;;9.97;62.44;95129.38;4991142;28;20214;-69
2022/09/22 05:45:03;;;;;;;6.77;6.27;;;;;;;10.07;61.94;95132.75;4990762;28;20212;-69
2022/09/22 05:47:28;;;;;;;7.10;6.47;;;;;;;9.99;62.00;95137.09;4990950;28;20206;-69
2022/09/22 05:49:55;;;;;;;7.15;6.55;;;;;;;10.03;62.21;95139.28;4990060;28;20306;-69
2022/09/22 05:52:20;;;;;;;7.35;6.75;;;;;;;10.14;61.89;95146.97;4988155;28;20222;-69
2022/09/22 05:54:45;;;;;;;8.48;7.68;;;;;;;10.15;62.01;95147.81;4987406;28;20208;-69
2022/09/22 05:57:11;;;;;;;7.28;6.68;;;;;;;10.19;61.83;95135.22;4987464;28;20208;-68
2022/09/22 05:59:36;;;;;;;8.07;7.30;;;;;;;10.16;62.00;95138.97;4985055;28;20297;-68
2022/09/22 06:02:03;;;;;;;6.90;6.40;;;;;;;10.14;62.11;95144.34;4989930;28;20227;-70
2022/09/22 06:04:29;;;;;;;7.20;6.70;;;;;;;10.24;61.52;95138.22;4985234;28;20228;-69
2022/09/22 06:06:54;;;;;;;8.05;7.40;;;;;;;10.25;61.82;95140.69;4982881;28;20628;-69
2022/09/22 06:09:20;;;;;;;8.18;7.47;;;;;;;10.30;61.52;95135.03;4984036;28;20215;-71
2022/09/22 06:11:45;;;;;;;8.00;7.30;;;;;;;10.47;61.13;95131.59;4981688;28;20263;-69
2022/09/22 06:14:10;;;;;;;7.13;6.43;;;;;;;10.57;60.83;95136.81;4988654;28;20323;-68
2022/09/22 06:16:36;;;;;;;7.32;6.72;;;;;;;10.72;59.97;95130.06;4985833;28;20208;-69
2022/09/22 06:19:01;;;;;;;7.93;7.20;;;;;;;10.76;59.88;95141.09;4984668;28;20226;-68
2022/09/22 06:21:27;;;;;;;6.95;6.43;;;;;;;10.55;60.00;95130.88;4986613;28;20218;-68
2022/09/22 06:23:53;;;;;;;7.80;7.13;;;;;;;10.52;59.96;95142.50;4988075;28;20301;-69
2022/09/22 06:26:18;;;;;;;7.35;6.75;;;;;;;10.56;60.08;95146.50;4986484;28;20311;-69
2022/09/22 06:28:43;;;;;;;7.10;6.50;;;;;;;10.76;59.68;95149.00;4986007;28;20635;-68
2022/09/22 06:31:09;;;;;;;6.82;6.30;;;;;;;10.72;59.53;95147.63;4987719;28;20224;-68
2022/09/22 06:33:34;;;;;;;6.88;6.30;;;;;;;10.62;59.55;95146.88;4986981;28;20214;-68
2022/09/22 06:36:00;;;;;;;5.80;5.40;;;;;;;10.66;59.21;95137.72;4987226;28;20211;-69
2022/09/22 06:38:26;;;;;;;6.10;5.60;;;;;;;10.53;59.47;95144.19;4970976;28;20212;-69
2022/09/22 06:40:57;;;;;;;6.47;5.97;;;;;;;10.57;59.32;95153.41;4987227;28;20208;-69
2022/09/22 06:43:23;;;;;;;6.40;5.80;;;;;;;10.62;59.23;95146.88;4983163;28;20216;-69
2022/09/22 06:45:51;;;;;;;6.78;6.20;;;;;;;10.80;59.03;95145.91;4987999;28;20215;-69
2022/09/22 06:48:21;;;;;;;6.32;5.82;;;;;;;11.03;58.31;95146.28;4988840;28;20207;-68
2022/09/22 06:50:52;;;;;;;6.28;5.53;;;;;;;11.11;58.10;95134.19;4988624;28;20987;-69
2022/09/22 06:53:18;;;;;;;6.70;6.10;;;;;;;11.15;57.93;95136.34;4985672;28;20200;-69
2022/09/22 06:55:44;;;;;;;7.40;6.70;;;;;;;11.11;58.15;95140.25;4985424;28;20211;-69
2022/09/22 06:58:11;;;;;;;7.03;6.43;;;;;;;11.12;58.37;95136.66;4986579;28;20211;-69
2022/09/22 07:00:36;;;;;;;6.25;5.82;;;;;;;11.18;58.46;95143.94;4988400;28;20206;-70
2022/09/22 07:03:12;;;;;;;6.00;5.57;;;;;;;11.07;57.87;95144.19;4986987;28;20203;-69
2022/09/22 07:05:37;;;;;;;6.55;6.05;;;;;;;11.19;57.92;95136.88;5018631;28;20219;-69
2022/09/22 07:08:03;;;;;;;6.18;5.70;;;;;;;11.26;57.51;95144.00;4987892;28;20608;-68
2022/09/22 07:10:30;;;;;;;6.53;6.03;;;;;;;11.37;57.22;95144.75;4981931;28;20205;-68
2022/09/22 07:12:59;;;;;;;5.90;5.40;;;;;;;11.20;57.29;95146.41;4984009;28;20200;-69
2022/09/22 07:15:24;;;;;;;5.78;5.38;;;;;;;11.06;57.79;95141.69;4988427;28;20243;-69
2022/09/22 07:17:51;;;;;;;5.65;5.15;;;;;;;11.10;58.01;95143.88;4987051;28;20211;-70
2022/09/22 07:20:18;;;;;;;5.78;5.35;;;;;;;11.32;57.38;95150.47;4983676;28;20314;-69
2022/09/22 07:22:44;;;;;;;6.57;5.97;;;;;;;11.39;57.62;95145.44;4982560;28;20613;-69
2022/09/22 07:25:09;;;;;;;6.30;5.80;;;;;;;11.69;57.32;95133.59;4982972;28;20230;-69
2022/09/22 07:27:35;;;;;;;6.32;5.82;;;;;;;11.87;56.49;95130.94;4987152;28;20215;-69
2022/09/22 07:30:00;;;;;;;6.63;6.03;;;;;;;11.81;56.78;95127.06;4983983;28;20218;-70
2022/09/22 07:32:31;;;;;;;6.47;5.88;;;;;;;11.89;56.54;95145.63;4987249;28;20204;-70
2022/09/22 07:34:56;;;;;;;6.28;5.78;;;;;;;11.81;56.30;95142.88;4985563;28;20207;-70
2022/09/22 07:37:22;;;;;;;6.35;5.85;;;;;;;12.03;56.05;95138.94;4990244;28;20238;-69
2022/09/22 07:39:48;;;;;;;5.60;5.20;;;;;;;12.33;54.61;95140.19;4986553;28;20571;-70
2022/09/22 07:42:15;;;;;;;7.35;5.95;;;;;;;12.38;54.78;95144.19;4986103;28;20203;-69
2022/09/22 07:50:08;;;;;;;6.38;5.78;;;;;;;12.35;53.67;95130.31;4988309;28;20211;-70
2022/09/22 07:52:34;;;;;;;5.40;4.97;;;;;;;12.30;54.34;95143.16;4990446;28;20207;-70
2022/09/22 07:54:59;;;;;;;6.30;5.70;;;;;;;12.46;53.65;95144.22;4991128;28;20241;-70
2022/09/22 07:57:24;;;;;;;5.47;5.07;;;;;;;12.52;53.42;95144.38;4989423;28;20269;-70
2022/09/22 07:59:50;;;;;;;5.18;4.78;;;;;;;12.44;53.42;95149.63;4988600;28;20246;-70
2022/09/22 08:02:15;;;;;;;4.78;4.40;;;;;;;12.42;53.10;95148.97;4988614;28;20294;-70
2022/09/22 08:04:41;;;;;;;4.47;4.10;;;;;;;12.26;53.45;95148.91;4987055;28;20211;-70
2022/09/22 08:07:06;;;;;;;4.95;4.55;;;;;;;12.42;52.71;95148.13;4990675;28;20203;-70
2022/09/22 08:09:32;;;;;;;5.18;4.68;;;;;;;12.68;52.73;95140.97;4986934;28;20211;-70
2022/09/22 08:11:58;;;;;;;5.40;4.90;;;;;;;13.07;51.78;95155.34;4986410;28;21023;-70
2022/09/22 08:14:25;;;;;;;4.60;4.20;;;;;;;13.31;50.28;95146.66;4987893;28;20227;-70
2022/09/22 08:16:52;;;;;;;5.40;4.78;;;;;;;13.38;50.88;95147.66;4984370;28;20196;-70
2022/09/22 08:19:19;;;;;;;4.25;3.92;;;;;;;13.05;49.71;95144.97;4988645;28;20594;-70
2022/09/22 08:21:46;;;;;;;4.30;4.00;;;;;;;12.74;50.42;95148.22;4985073;28;20215;-70
2022/09/22 08:24:14;;;;;;;3.83;3.53;;;;;;;12.47;50.62;95145.84;4989669;28;20227;-71
2022/09/22 08:26:42;;;;;;;4.57;3.72;;;;;;;12.50;51.01;95148.16;4984909;28;20219;-70
2022/09/22 08:29:09;;;;;;;4.15;3.85;;;;;;;12.75;50.51;95141.97;4983111;28;20215;-71
2022/09/22 08:31:35;;;;;;;3.72;3.42;;;;;;;12.99;49.00;95140.34;4986091;28;20293;-69
2022/09/22 08:34:03;;;;;;;4.00;3.70;;;;;;;13.25;48.19;95127.81;4986408;28;20199;-71
2022/09/22 08:36:29;;;;;;;4.47;3.50;;;;;;;13.51;47.94;95128.66;4989711;28;20212;-69
2022/09/22 08:38:58;;;;;;;3.75;3.45;;;;;;;13.66;47.51;95124.34;4990696;28;20262;-70
2022/09/22 08:41:37;;;;;;;3.85;3.20;;;;;;;13.73;47.47;95124.50;4987613;28;20254;-70
2022/09/22 08:44:05;;;;;;;3.15;2.85;;;;;;;13.62;46.93;95134.41;4985885;28;20207;-69
2022/09/22 08:46:33;;;;;;;3.40;3.10;;;;;;;13.21;48.06;95137.06;4988961;28;20243;-70
2022/09/22 08:52:04;;;;;;;2.75;2.55;;;;;;;12.72;48.88;95123.84;4983351;28;20218;-70
2022/09/22 08:54:30;;;;;;;3.08;2.78;;;;;;;12.75;48.90;95123.50;4996520;28;20226;-70
2022/09/22 08:56:59;;;;;;;2.92;2.72;;;;;;;12.92;49.07;95131.44;4989321;28;20226;-70
2022/09/22 08:59:42;;;;;;;3.03;2.58;;;;;;;13.33;47.05;95131.47;4990238;28;20219;-70
2022/09/22 09:02:40;;;;;;;2.85;2.65;;;;;;;13.57;45.45;95115.59;4985562;28;20210;-69
2022/09/22 09:05:27;;;;;;;3.65;2.90;;;;;;;13.83;44.95;95114.56;4987668;28;20215;-69
2022/09/22 09:07:56;;;;;;;2.97;2.50;;;;;;;13.97;45.40;95111.22;4983856;28;20203;-70
2022/09/22 09:10:22;;;;;;;2.70;2.50;;;;;;;13.95;44.33;95112.38;4984241;28;20208;-70
2022/09/22 09:12:54;;;;;;;2.42;2.22;;;;;;;13.76;44.46;95101.19;4991081;28;20328;-70
2022/09/22 09:15:53;;;;;;;2.53;2.30;;;;;;;13.81;44.33;95116.56;4984772;28;20235;-69
2022/09/22 09:18:24;;;;;;;2.20;2.00;;;;;;;13.72;44.45;95122.84;4985007;28;20216;-70
2022/09/22 09:20:51;;;;;;;2.35;2.15;;;;;;;14.01;43.87;95096.66;4986312;28;20290;-69
2022/09/22 09:23:36;;;;;;;2.53;2.33;;;;;;;14.41;42.67;95102.78;4990150;28;20219;-69
2022/09/22 09:26:04;;;;;;;2.53;2.30;;;;;;;14.61;41.52;95097.06;4986647;28;20269;-69
2022/09/22 09:28:36;;;;;;;2.38;2.17;;;;;;;14.75;41.36;95104.25;4988921;28;20211;-69
2022/09/22 09:31:12;;;;;;;3.55;2.30;;;;;;;14.66;42.04;95107.97;4986215;28;20203;-69
2022/09/22 09:34:14;;;;;;;1.45;1.35;;;;;;;14.46;40.77;95091.66;4988460;28;20199;-69
2022/09/22 09:36:43;;;;;;;2.60;1.77;;;;;;;14.34;41.49;95101.81;4971678;28;20243;-69
2022/09/22 09:39:35;;;;;;;1.50;1.40;;;;;;;14.46;40.76;95094.31;4960012;28;20223;-69
2022/09/22 09:42:07;;;;;;;1.88;1.50;;;;;;;14.53;40.62;95111.19;4956984;28;20214;-69
2022/09/22 09:44:38;;;;;;;1.33;1.23;;;;;;;14.58;39.01;95094.78;4989001;28;20228;-69
2022/09/22 09:47:26;;;;;;;2.65;1.63;;;;;;;14.55;39.76;95085.38;4962208;28;20215;-68
2022/09/22 09:49:53;;;;;;;1.85;1.45;;;;;;;14.74;40.42;95097.31;4985693;28;20208;-68
2022/09/22 09:52:20;;;;;;;2.00;1.80;;;;;;;14.77;39.72;95095.16;4967540;28;20511;-72
2022/09/22 09:54:49;;;;;;;2.15;1.25;;;;;;;14.78;38.43;95083.56;4952907;28;20276;-70
2022/09/22 09:57:17;;;;;;;3.03;2.78;;;;;;;14.78;39.30;95086.22;4953656;28;20247;-69
2022/09/22 10:00:30;;;;;;;1.75;1.65;;;;;;;15.16;38.97;95080.97;4964374;28;20217;-68
2022/09/22 10:03:01;;;;;;;1.80;1.70;;;;;;;15.46;38.31;95081.03;4967363;28;20219;-68
2022/09/22 10:05:28;;;;;;;1.70;1.60;;;;;;;15.37;37.94;95071.50;4958222;28;20433;-68
2022/09/22 10:08:01;;;;;;;2.15;1.60;;;;;;;15.79;38.10;95073.59;4970120;28;20216;-68
2022/09/22 10:10:34;;;;;;;1.85;1.60;;;;;;;16.17;37.34;95065.56;4954150;28;20579;-68
2022/09/22 10:13:02;;;;;;;2.20;1.75;;;;;;;16.42;36.51;95070.53;4969648;28;20227;-68
2022/09/22 10:15:28;;;;;;;2.40;1.30;;;;;;;16.66;35.52;95064.06;4986881;28;20232;-68
2022/09/22 10:17:54;;;;;;;1.58;1.48;;;;;;;16.95;35.59;95065.81;4983330;28;20211;-68
2022/09/22 10:20:25;;;;;;;1.70;1.60;;;;;;;17.18;35.34;95071.72;4986429;28;20204;-69
2022/09/22 10:22:52;;;;;;;1.50;1.40;;;;;;;17.49;34.77;95067.91;4988953;28;20204;-69
2022/09/22 10:25:23;;;;;;;1.67;1.30;;;;;;;17.41;34.78;95060.06;4982233;28;20211;-68
2022/09/22 10:28:02;;;;;;;1.92;1.75;;;;;;;17.74;34.54;95068.28;4982485;28;20956;-68
2022/09/22 10:30:31;;;;;;;3.13;1.27;;;;;;;17.88;34.98;95050.59;4984316;28;20227;-70
2022/09/22 10:33:17;;;;;;;1.80;1.50;;;;;;;17.50;34.25;95056.25;4988577;28;20535;-67
2022/09/22 10:35:46;;;;;;;2.05;1.50;;;;;;;17.45;34.50;95060.50;5000979;28;20215;-66
2022/09/22 10:38:25;;;;;;;1.27;1.20;;;;;;;17.51;33.30;95054.41;4984541;28;20208;-66
2022/09/22 10:40:59;;;;;;;1.50;1.40;;;;;;;17.49;34.66;95057.28;4982077;28;20231;-64
2022/09/22 10:43:36;;;;;;;1.92;1.00;;;;;;;17.47;32.49;95050.50;4986205;28;20206;-66
2022/09/22 10:46:22;;;;;;;1.38;1.13;;;;;;;17.59;33.10;95046.31;4988519;28;20669;-66
2022/09/22 10:49:30;;;;;;;1.42;1.30;;;;;;;17.94;32.02;95049.00;4983075;28;20246;-63
2022/09/22 10:52:12;;;;;;;1.15;1.08;;;;;;;18.10;31.97;95038.03;4986678;28;20215;-64
2022/09/22 10:54:43;;;;;;;1.58;1.00;;;;;;;18.21;31.58;95047.28;4988976;28;21015;-65
2022/09/22 10:57:37;;;;;;;1.98;1.23;;;;;;;18.08;31.62;95045.38;4982990;28;20208;-67
2022/09/22 11:00:18;;;;;;;1.67;1.58;;;;;;;18.19;32.44;95033.34;4974941;28;20219;-65
2022/09/22 11:02:47;;;;;;;2.08;1.50;;;;;;;17.66;33.13;95043.69;4981663;28;20212;-67
2022/09/22 11:14:50;;;;;;;1.65;1.40;;;;;;;17.77;33.39;95030.66;4980129;28;20298;-67
2022/09/22 11:17:52;;;;;;;4.07;1.40;;;;;;;17.66;33.43;95017.09;4982638;28;20216;-67
2022/09/22 11:20:31;;;;;;;2.17;1.25;;;;;;;18.15;33.11;95011.66;4984888;28;20294;-66
2022/09/22 11:23:20;;;;;;;1.38;1.27;;;;;;;18.59;31.69;95012.19;4986660;28;20218;-67
2022/09/22 11:26:05;;;;;;;1.92;1.52;;;;;;;18.97;32.69;95012.47;4982335;28;20242;-67
2022/09/22 11:29:06;;;;;;;2.08;1.42;;;;;;;18.91;31.77;95003.47;4981841;28;20347;-66
2022/09/22 11:31:59;;;;;;;1.98;1.40;;;;;;;18.74;31.84;95015.50;4971302;28;20617;-67
2022/09/22 11:34:39;;;;;;;1.25;1.15;;;;;;;18.54;32.17;95017.28;4983476;28;20208;-66
2022/09/22 11:37:29;;;;;;;2.03;1.23;;;;;;;18.61;31.24;95015.47;4967336;28;20219;-66
2022/09/22 11:40:14;;;;;;;1.20;1.05;;;;;;;19.08;30.57;95003.06;4966755;28;20343;-66
2022/09/22 11:43:21;;;;;;;1.60;0.90;;;;;;;19.73;28.00;94996.06;4966997;28;20270;-66
2022/09/22 11:46:15;;;;;;;1.25;0.85;;;;;;;19.67;27.56;94996.88;4878348;29;20234;-67
2022/09/22 11:49:02;;;;;;;1.00;1.00;;;;;;;19.57;27.38;94996.47;4864502;29;20727;-66
2022/09/22 11:51:36;;;;;;;1.20;1.10;;;;;;;19.66;28.21;94995.25;4861425;29;20214;-67
2022/09/22 11:54:20;;;;;;;1.55;1.17;;;;;;;19.45;29.06;94996.28;4876732;29;20608;-68
2022/09/22 11:56:51;;;;;;;3.20;1.38;;;;;;;19.65;30.46;94995.44;4876840;29;20310;-68
2022/09/22 11:59:46;;;;;;;2.78;1.42;;;;;;;19.57;31.45;95002.63;4859634;29;20756;-67
2022/09/22 12:02:24;;;;;;;2.72;1.88;;;;;;;20.04;31.95;94998.00;4854878;29;20227;-68
2022/09/22 12:04:56;;;;;;;1.60;1.50;;;;;;;20.28;32.50;95001.81;4876509;29;20211;-67
2022/09/22 12:07:38;;;;;;;1.50;1.40;;;;;;;19.65;31.87;95008.78;4882300;29;20251;-67
2022/09/22 12:10:14;;;;;;;1.65;1.55;;;;;;;19.46;32.81;95008.59;4910879;29;20218;-67
2022/09/22 12:12:42;;;;;;;1.70;1.60;;;;;;;19.21;32.73;95005.72;4891867;29;20218;-67
2022/09/22 12:15:21;;;;;;;1.85;1.30;;;;;;;18.89;32.64;95007.34;4902425;29;20333;-67